Time;durP1;ratioP1;P1;durP2;ratioP2;P2;SDS_P1;SDS_P2;PMS_P1;PMS_P2;Temp;Humidity;BMP_temperature;BMP_pressure;BME280_temperature;BME280_humidity;BME280_pressure;Samples;Min_cycle;Max_cycle;Signal;HPM_P1;HPM_P2
2022/05/17 00:01:41;;;;;;;6.95;4.32;;;14.00;99.90;;;;;;4990216;28;20057;-45
2022/05/17 00:04:07;;;;;;;5.80;3.72;;;14.00;99.90;;;;;;4991831;28;20104;-45
2022/05/17 00:06:32;;;;;;;7.40;3.30;;;14.10;99.90;;;;;;4991803;28;20106;-47
2022/05/17 00:08:58;;;;;;;5.72;3.70;;;14.00;99.90;;;;;;4991521;28;20041;-45
2022/05/17 00:11:25;;;;;;;6.22;3.75;;;14.00;99.90;;;;;;4991212;28;20031;-44
2022/05/17 00:13:50;;;;;;;10.60;4.30;;;14.00;99.90;;;;;;4991411;28;20114;-45
2022/05/17 00:16:16;;;;;;;5.47;4.10;;;13.90;99.90;;;;;;4991481;28;20057;-45
2022/05/17 00:18:42;;;;;;;7.45;4.15;;;13.90;99.90;;;;;;4991293;28;20533;-49
2022/05/17 00:21:08;;;;;;;8.35;4.70;;;13.90;99.90;;;;;;4989784;28;20026;-45
2022/05/17 00:23:36;;;;;;;7.05;4.00;;;13.90;99.90;;;;;;4991124;28;20076;-46
2022/05/17 00:26:03;;;;;;;6.70;4.35;;;13.90;99.90;;;;;;4991268;28;20559;-44
2022/05/17 00:28:29;;;;;;;7.78;4.05;;;14.00;99.90;;;;;;4989678;28;20034;-45
2022/05/17 00:30:54;;;;;;;7.03;3.75;;;14.00;99.90;;;;;;4989148;28;20027;-44
2022/05/17 00:33:23;;;;;;;5.25;3.97;;;14.00;99.90;;;;;;4990545;28;20022;-45
2022/05/17 00:35:49;;;;;;;6.28;4.10;;;14.00;99.90;;;;;;4990866;28;20037;-43
2022/05/17 00:38:16;;;;;;;6.72;4.32;;;14.00;99.90;;;;;;4990950;28;20031;-44
2022/05/17 00:40:42;;;;;;;8.55;4.55;;;14.00;99.90;;;;;;4990547;28;20506;-44
2022/05/17 00:43:21;;;;;;;6.97;4.05;;;14.00;99.90;;;;;;4990775;28;20494;-43
2022/05/17 00:45:49;;;;;;;9.98;4.78;;;14.00;99.90;;;;;;5008221;28;20025;-43
2022/05/17 00:48:16;;;;;;;7.20;4.30;;;14.00;99.90;;;;;;5009087;28;20033;-43
2022/05/17 00:50:46;;;;;;;6.22;3.92;;;13.90;99.90;;;;;;5010073;28;20030;-43
2022/05/17 00:53:33;;;;;;;6.07;4.50;;;13.90;99.90;;;;;;5010001;28;20018;-44
2022/05/17 00:56:02;;;;;;;5.50;3.90;;;13.80;99.90;;;;;;5010052;28;20025;-42
2022/05/17 00:58:33;;;;;;;6.72;4.22;;;13.80;99.90;;;;;;5009095;28;20157;-45
2022/05/17 01:01:15;;;;;;;5.70;3.90;;;13.90;99.90;;;;;;5007748;28;20426;-43
2022/05/17 01:04:07;;;;;;;8.57;3.97;;;13.80;99.90;;;;;;5007994;28;20034;-43
2022/05/17 01:06:38;;;;;;;6.00;4.53;;;13.80;99.90;;;;;;5009793;28;20155;-42
2022/05/17 01:09:04;;;;;;;5.38;4.65;;;13.80;99.90;;;;;;5010287;28;20684;-43
2022/05/17 01:11:30;;;;;;;6.22;4.32;;;13.80;99.90;;;;;;5009621;28;20092;-43
2022/05/17 01:16:40;;;;;;;4.78;3.72;;;13.80;99.90;;;;;;5010261;28;20080;-42
2022/05/17 01:19:09;;;;;;;8.55;4.25;;;13.70;99.90;;;;;;5009854;28;20034;-42
2022/05/17 01:21:35;;;;;;;7.00;3.83;;;13.70;99.90;;;;;;5009944;28;20546;-42
2022/05/17 01:24:00;;;;;;;7.60;4.57;;;13.60;99.90;;;;;;5009676;28;20109;-46
2022/05/17 01:26:29;;;;;;;7.93;4.15;;;13.70;99.90;;;;;;5009986;28;20072;-42
2022/05/17 01:28:55;;;;;;;7.97;4.00;;;13.70;99.90;;;;;;5009862;28;20046;-44
2022/05/17 01:31:21;;;;;;;6.13;4.18;;;13.70;99.90;;;;;;5009263;28;20026;-42
2022/05/17 01:33:47;;;;;;;7.53;4.50;;;13.70;99.90;;;;;;5010199;28;20083;-42
2022/05/17 01:36:15;;;;;;;6.30;4.30;;;13.50;99.90;;;;;;5008681;28;20437;-42
2022/05/17 01:38:45;;;;;;;7.82;4.15;;;13.50;99.90;;;;;;5008577;28;20080;-43
2022/05/17 01:41:11;;;;;;;5.57;4.28;;;13.60;99.90;;;;;;5009635;28;20026;-42
2022/05/17 01:43:37;;;;;;;6.47;4.18;;;13.60;99.90;;;;;;5009844;28;20513;-42
2022/05/17 01:46:10;;;;;;;7.60;4.85;;;13.60;99.90;;;;;;5009664;28;20022;-43
2022/05/17 01:48:37;;;;;;;5.93;4.35;;;13.60;99.90;;;;;;5009693;28;20026;-43
2022/05/17 01:51:04;;;;;;;8.60;4.50;;;13.60;99.90;;;;;;5008543;28;20022;-43
2022/05/17 01:53:29;;;;;;;13.55;5.07;;;13.60;99.90;;;;;;5010984;28;20022;-46
2022/05/17 01:55:55;;;;;;;6.40;4.57;;;13.60;99.90;;;;;;5013617;28;20021;-45
2022/05/17 01:58:21;;;;;;;10.32;5.07;;;13.60;99.90;;;;;;5013678;28;20034;-43
2022/05/17 02:00:47;;;;;;;5.13;4.28;;;13.50;99.90;;;;;;5013339;28;20026;-43
2022/05/17 02:03:12;;;;;;;5.82;4.15;;;13.60;99.90;;;;;;5036006;23;20037;-47
2022/05/17 02:05:38;;;;;;;5.97;4.70;;;13.50;99.90;;;;;;5013016;28;20026;-50
2022/05/17 02:08:04;;;;;;;12.60;5.63;;;13.50;99.90;;;;;;5012622;28;20065;-49
2022/05/17 02:10:30;;;;;;;4.47;4.07;;;13.50;99.90;;;;;;5013116;28;20022;-53
2022/05/17 02:12:57;;;;;;;6.88;5.03;;;13.50;99.90;;;;;;5012733;28;20022;-51
2022/05/17 02:15:23;;;;;;;9.65;5.13;;;13.50;99.90;;;;;;4995155;28;20022;-49
2022/05/17 02:17:49;;;;;;;5.13;4.40;;;13.50;99.90;;;;;;5013122;28;20026;-49
2022/05/17 02:20:15;;;;;;;7.53;4.95;;;13.40;99.90;;;;;;5012849;28;20148;-47
2022/05/17 02:22:41;;;;;;;7.47;4.65;;;13.40;99.90;;;;;;5012910;28;20498;-48
2022/05/17 02:25:08;;;;;;;7.82;4.43;;;13.40;99.90;;;;;;5011999;28;20041;-49
2022/05/17 02:27:34;;;;;;;5.55;4.57;;;13.30;99.90;;;;;;5013026;28;20409;-48
2022/05/17 02:30:00;;;;;;;7.20;4.90;;;13.30;99.90;;;;;;5012930;28;20044;-52
2022/05/17 02:32:25;;;;;;;4.57;3.65;;;13.30;99.90;;;;;;4995010;28;20470;-52
2022/05/17 02:34:52;;;;;;;12.38;4.85;;;13.30;99.90;;;;;;5012782;28;20112;-50
2022/05/17 02:37:17;;;;;;;8.27;5.25;;;13.30;99.90;;;;;;5006282;28;20026;-50
2022/05/17 02:39:45;;;;;;;6.90;4.90;;;13.30;99.90;;;;;;4994848;28;20433;-54
2022/05/17 02:42:11;;;;;;;5.43;4.45;;;13.30;99.90;;;;;;5004038;28;20026;-51
2022/05/17 02:44:37;;;;;;;4.90;4.00;;;13.30;99.90;;;;;;5012474;28;20544;-50
2022/05/17 02:47:04;;;;;;;5.93;4.90;;;13.30;99.90;;;;;;5012783;28;20029;-50
2022/05/17 02:49:30;;;;;;;7.40;4.60;;;13.30;99.90;;;;;;5012418;28;20022;-49
2022/05/17 02:52:01;;;;;;;6.70;4.82;;;13.30;99.90;;;;;;4994463;28;20037;-51
2022/05/17 02:54:26;;;;;;;6.90;5.07;;;13.30;99.90;;;;;;4994962;28;20048;-50
2022/05/17 02:56:52;;;;;;;5.07;4.32;;;13.30;99.90;;;;;;5012314;28;20470;-49
2022/05/17 02:59:19;;;;;;;7.50;4.85;;;13.40;99.90;;;;;;5012141;28;20038;-51
2022/05/17 03:01:45;;;;;;;5.97;4.70;;;13.40;99.90;;;;;;5011993;28;20026;-49
2022/05/17 03:04:14;;;;;;;7.18;4.88;;;13.40;99.90;;;;;;4993599;28;20116;-50
2022/05/17 03:06:43;;;;;;;5.72;4.35;;;13.40;99.90;;;;;;5011486;28;20060;-49
2022/05/17 03:09:10;;;;;;;7.15;4.70;;;13.40;99.90;;;;;;5011914;28;20065;-48
2022/05/17 03:11:37;;;;;;;9.93;4.85;;;13.40;99.90;;;;;;5011728;28;20048;-50
2022/05/17 03:14:03;;;;;;;7.93;4.95;;;13.40;99.90;;;;;;5012185;28;20018;-49
2022/05/17 03:16:32;;;;;;;4.97;4.10;;;13.40;99.90;;;;;;5012505;28;20092;-49
2022/05/17 03:18:59;;;;;;;8.30;6.03;;;13.50;99.90;;;;;;5011914;28;20026;-52
2022/05/17 03:21:25;;;;;;;6.45;4.38;;;13.50;99.90;;;;;;5011455;28;20030;-51
2022/05/17 03:23:51;;;;;;;6.55;4.30;;;13.50;99.90;;;;;;5011861;28;20088;-50
2022/05/17 03:26:17;;;;;;;7.30;4.72;;;13.50;99.90;;;;;;5011402;28;20037;-50
2022/05/17 03:28:42;;;;;;;10.68;4.97;;;13.50;99.90;;;;;;5011486;28;20026;-48
2022/05/17 03:31:10;;;;;;;9.02;5.38;;;13.50;99.90;;;;;;4994116;28;20029;-49
2022/05/17 03:33:37;;;;;;;6.65;5.00;;;13.50;99.90;;;;;;5011441;28;20018;-49
2022/05/17 03:36:04;;;;;;;8.90;4.65;;;13.50;99.90;;;;;;4994086;28;20034;-51
2022/05/17 03:38:29;;;;;;;6.70;5.30;;;13.50;99.90;;;;;;5011491;28;20080;-49
2022/05/17 03:40:58;;;;;;;6.90;4.72;;;13.50;99.90;;;;;;5011634;28;20472;-49
2022/05/17 03:43:24;;;;;;;7.18;5.70;;;13.50;99.90;;;;;;5011076;28;20141;-50
2022/05/17 03:45:50;;;;;;;6.55;4.68;;;13.50;99.90;;;;;;5011533;28;20030;-50
2022/05/17 03:48:15;;;;;;;8.73;6.43;;;13.50;99.90;;;;;;5011519;28;20109;-49
2022/05/17 03:50:42;;;;;;;6.75;5.88;;;13.50;99.90;;;;;;4993830;28;20394;-49
2022/05/17 03:53:08;;;;;;;8.85;6.25;;;13.50;99.90;;;;;;5010945;28;20034;-49
2022/05/17 03:55:33;;;;;;;11.23;5.97;;;13.50;99.90;;;;;;5011634;28;20025;-50
2022/05/17 03:57:59;;;;;;;6.47;4.78;;;13.50;99.90;;;;;;5011383;28;20113;-54
2022/05/17 04:00:24;;;;;;;6.75;6.05;;;13.50;99.90;;;;;;5011144;28;20053;-49
2022/05/17 04:02:50;;;;;;;7.15;6.20;;;13.50;99.90;;;;;;5010875;28;20025;-49
2022/05/17 04:05:17;;;;;;;8.60;5.97;;;13.50;99.90;;;;;;5011093;28;20498;-51
2022/05/17 04:07:42;;;;;;;10.30;7.35;;;13.60;99.90;;;;;;5010804;28;20026;-50
2022/05/17 04:10:10;;;;;;;10.40;7.47;;;13.60;99.90;;;;;;5011156;28;20363;-49
2022/05/17 04:12:36;;;;;;;10.00;7.90;;;13.60;99.90;;;;;;4992947;28;20026;-49
2022/05/17 04:15:04;;;;;;;11.30;7.78;;;13.60;99.90;;;;;;5010834;28;20032;-49
2022/05/17 04:17:29;;;;;;;9.82;7.90;;;13.60;99.90;;;;;;4976698;28;20101;-49
2022/05/17 04:19:55;;;;;;;10.38;8.20;;;13.70;99.90;;;;;;4993055;28;20124;-49
2022/05/17 04:22:20;;;;;;;9.38;7.68;;;13.70;99.90;;;;;;4993185;28;20124;-48
2022/05/17 04:24:46;;;;;;;10.70;7.82;;;13.70;99.90;;;;;;4992748;28;20029;-50
2022/05/17 04:27:14;;;;;;;8.75;7.85;;;13.70;99.90;;;;;;5010687;28;20041;-52
2022/05/17 04:29:41;;;;;;;9.85;8.93;;;13.70;99.90;;;;;;4993043;28;20053;-52
2022/05/17 04:32:07;;;;;;;10.93;9.32;;;13.70;99.90;;;;;;4993075;28;20022;-50
2022/05/17 04:34:33;;;;;;;12.18;9.05;;;13.80;99.90;;;;;;5010427;28;20076;-52
2022/05/17 04:36:58;;;;;;;9.68;8.05;;;13.80;99.90;;;;;;5010432;28;20021;-52
2022/05/17 04:39:24;;;;;;;10.18;7.85;;;13.80;99.90;;;;;;5010912;28;20068;-49
2022/05/17 04:41:50;;;;;;;11.35;9.52;;;13.80;99.90;;;;;;5010157;28;20037;-50
2022/05/17 04:44:16;;;;;;;11.70;10.02;;;13.80;99.90;;;;;;5010395;28;20029;-49
2022/05/17 04:46:41;;;;;;;10.65;9.55;;;13.80;99.90;;;;;;4992719;28;20030;-48
2022/05/17 04:49:07;;;;;;;13.77;10.23;;;13.80;99.90;;;;;;5010199;28;20037;-49
2022/05/17 04:51:34;;;;;;;13.27;10.70;;;13.80;99.90;;;;;;5009896;28;20474;-47
2022/05/17 04:54:00;;;;;;;12.02;10.68;;;13.80;99.90;;;;;;5010129;28;20038;-48
2022/05/17 04:56:26;;;;;;;10.98;9.68;;;13.80;99.90;;;;;;5010252;28;20033;-49
2022/05/17 04:58:52;;;;;;;10.68;9.50;;;13.80;99.90;;;;;;5010152;28;20026;-48
2022/05/17 05:01:17;;;;;;;16.05;11.23;;;13.80;99.90;;;;;;5010059;28;20092;-49
2022/05/17 05:03:43;;;;;;;12.55;11.25;;;13.90;99.90;;;;;;5010208;28;20040;-52
2022/05/17 05:06:08;;;;;;;13.13;10.95;;;13.90;99.90;;;;;;5010071;28;20029;-51
2022/05/17 05:08:34;;;;;;;12.25;10.95;;;13.90;99.90;;;;;;5010593;28;20104;-51
2022/05/17 05:11:00;;;;;;;12.98;10.50;;;13.90;99.90;;;;;;5010329;28;20026;-48
2022/05/17 05:13:25;;;;;;;16.15;11.48;;;13.90;99.90;;;;;;5009658;28;20077;-51
2022/05/17 05:15:52;;;;;;;14.07;12.50;;;13.90;99.90;;;;;;5010136;28;20424;-49
2022/05/17 05:18:18;;;;;;;14.55;10.57;;;13.90;99.90;;;;;;5010369;28;20026;-52
2022/05/17 05:20:43;;;;;;;11.02;9.18;;;14.00;99.90;;;;;;5009913;28;20032;-51
2022/05/17 05:23:11;;;;;;;12.85;10.45;;;14.00;99.90;;;;;;5009636;28;20037;-54
2022/05/17 05:25:37;;;;;;;9.35;8.45;;;14.00;99.90;;;;;;5009618;28;20036;-54
2022/05/17 05:28:05;;;;;;;10.60;9.52;;;14.00;99.90;;;;;;4992982;28;20030;-50
2022/05/17 05:30:31;;;;;;;10.35;9.15;;;14.00;99.90;;;;;;5013829;28;20022;-51
2022/05/17 05:32:57;;;;;;;9.30;8.35;;;14.00;99.90;;;;;;5013728;28;20490;-52
2022/05/17 05:35:25;;;;;;;9.80;8.80;;;14.00;99.90;;;;;;5013790;28;20470;-49
2022/05/17 05:37:51;;;;;;;11.75;9.52;;;14.00;99.90;;;;;;5013861;28;20059;-49
2022/05/17 05:40:17;;;;;;;11.30;9.73;;;14.00;99.90;;;;;;5013693;28;20123;-50
2022/05/17 05:42:43;;;;;;;10.77;9.68;;;14.00;99.90;;;;;;5013422;28;20076;-50
2022/05/17 05:45:10;;;;;;;9.05;8.15;;;14.00;99.90;;;;;;5013900;28;20038;-51
2022/05/17 05:47:36;;;;;;;12.25;10.95;;;14.00;99.90;;;;;;5013737;28;20029;-50
2022/05/17 05:50:02;;;;;;;12.50;10.35;;;14.10;99.90;;;;;;5013894;28;20040;-51
2022/05/17 05:52:27;;;;;;;13.73;10.35;;;14.10;99.90;;;;;;5013339;28;20034;-51
2022/05/17 05:54:53;;;;;;;13.00;10.02;;;14.10;99.90;;;;;;4995941;28;20050;-53
2022/05/17 05:57:18;;;;;;;10.88;9.65;;;14.10;99.90;;;;;;5013651;28;20045;-49
2022/05/17 05:59:44;;;;;;;13.32;10.20;;;14.20;99.90;;;;;;5013518;28;20021;-52
2022/05/17 06:02:10;;;;;;;12.13;10.82;;;14.20;99.90;;;;;;4995325;28;20050;-50
2022/05/17 06:04:37;;;;;;;12.68;11.05;;;14.30;99.90;;;;;;5012849;28;20069;-49
2022/05/17 06:07:03;;;;;;;11.82;10.32;;;14.30;99.90;;;;;;5013426;28;20053;-51
2022/05/17 06:09:29;;;;;;;12.65;10.68;;;14.30;99.90;;;;;;5013150;28;20396;-49
2022/05/17 06:11:55;;;;;;;10.35;9.25;;;14.30;99.90;;;;;;5013060;28;20026;-50
2022/05/17 06:14:21;;;;;;;11.20;10.00;;;14.30;99.90;;;;;;5013056;28;20022;-51
2022/05/17 06:16:48;;;;;;;12.18;10.95;;;14.40;99.90;;;;;;5013075;28;20282;-50
2022/05/17 06:19:14;;;;;;;12.15;10.63;;;14.40;99.90;;;;;;4995160;28;20494;-49
2022/05/17 06:21:40;;;;;;;12.25;10.88;;;14.40;99.90;;;;;;4995233;28;20068;-52
2022/05/17 06:24:06;;;;;;;12.65;10.93;;;14.30;99.90;;;;;;5012177;28;20429;-49
2022/05/17 06:26:32;;;;;;;14.25;10.93;;;14.30;99.90;;;;;;5013242;28;20038;-52
2022/05/17 06:28:57;;;;;;;13.32;10.77;;;14.40;99.90;;;;;;5013086;28;20045;-48
2022/05/17 06:31:23;;;;;;;11.38;10.25;;;14.40;99.90;;;;;;5012689;28;20018;-50
2022/05/17 06:33:48;;;;;;;13.55;10.60;;;14.40;99.90;;;;;;5012721;28;20389;-50
2022/05/17 06:36:14;;;;;;;12.95;11.63;;;14.40;99.90;;;;;;5012764;28;20026;-52
2022/05/17 06:38:40;;;;;;;14.35;12.35;;;14.30;99.90;;;;;;5012506;28;20041;-50
2022/05/17 06:41:05;;;;;;;13.73;11.60;;;14.40;99.90;;;;;;5012745;28;20022;-51
2022/05/17 06:43:34;;;;;;;14.50;11.95;;;14.40;99.90;;;;;;5012518;28;20030;-49
2022/05/17 06:46:00;;;;;;;16.48;12.65;;;14.40;99.90;;;;;;5012778;28;20025;-51
2022/05/17 06:48:26;;;;;;;18.80;12.75;;;14.40;99.90;;;;;;5012601;28;20018;-49
2022/05/17 06:50:51;;;;;;;19.65;12.60;;;14.40;99.90;;;;;;4994980;28;20033;-49
2022/05/17 06:53:17;;;;;;;14.65;12.30;;;14.40;99.90;;;;;;5012268;28;20486;-49
2022/05/17 06:55:43;;;;;;;17.95;12.70;;;14.40;99.90;;;;;;5012319;28;20558;-52
2022/05/17 06:58:08;;;;;;;15.98;12.70;;;14.40;99.90;;;;;;5012400;28;20076;-48
2022/05/17 07:00:34;;;;;;;15.73;12.25;;;14.50;99.90;;;;;;4994749;28;20557;-49
2022/05/17 07:03:00;;;;;;;15.82;11.23;;;14.50;99.90;;;;;;5012112;28;20034;-52
2022/05/17 07:05:27;;;;;;;13.10;10.43;;;14.60;99.90;;;;;;5012664;28;20030;-50
2022/05/17 07:07:53;;;;;;;17.00;12.15;;;14.60;99.90;;;;;;4994677;28;20029;-49
2022/05/17 07:13:09;;;;;;;17.15;12.07;;;14.60;99.90;;;;;;5011855;28;20032;-50
2022/05/17 07:15:47;;;;;;;16.85;12.55;;;14.60;99.90;;;;;;5012186;28;20105;-50
2022/05/17 07:18:17;;;;;;;16.20;12.20;;;14.60;99.90;;;;;;5012284;28;20052;-49
2022/05/17 07:20:43;;;;;;;14.55;11.20;;;14.60;99.90;;;;;;4994445;28;20022;-49
2022/05/17 07:23:10;;;;;;;14.50;10.80;;;14.60;99.90;;;;;;5011900;28;20026;-51
2022/05/17 07:25:40;;;;;;;13.68;11.52;;;14.60;99.90;;;;;;5011291;28;20036;-50
2022/05/17 07:28:06;;;;;;;13.65;10.80;;;14.60;99.90;;;;;;5011916;28;20022;-48
2022/05/17 07:30:32;;;;;;;14.90;10.43;;;14.60;99.90;;;;;;4994213;28;20022;-53
2022/05/17 07:32:58;;;;;;;15.02;11.57;;;14.60;99.90;;;;;;5011376;28;20072;-49
2022/05/17 07:35:24;;;;;;;12.82;11.18;;;14.60;99.90;;;;;;4993964;28;20033;-50
2022/05/17 07:37:49;;;;;;;10.57;9.10;;;14.60;99.90;;;;;;5011647;28;20111;-51
2022/05/17 07:40:15;;;;;;;11.70;9.95;;;14.60;99.90;;;;;;5011690;28;20038;-49
2022/05/17 07:42:41;;;;;;;11.50;10.00;;;14.60;99.90;;;;;;5011738;28;20034;-52
2022/05/17 07:45:08;;;;;;;12.50;9.55;;;14.70;99.90;;;;;;5011975;28;20044;-51
2022/05/17 07:47:34;;;;;;;12.15;10.15;;;14.60;99.90;;;;;;5011492;28;20029;-48
2022/05/17 07:50:00;;;;;;;14.00;10.38;;;14.60;99.90;;;;;;4994197;28;20048;-49
2022/05/17 07:52:26;;;;;;;11.73;7.72;;;14.70;99.90;;;;;;5010596;28;20068;-51
2022/05/17 07:54:51;;;;;;;9.32;7.45;;;14.70;99.90;;;;;;5011436;28;20037;-50
2022/05/17 07:57:19;;;;;;;9.15;7.40;;;14.90;99.90;;;;;;5011501;28;20457;-48
2022/05/17 07:59:45;;;;;;;7.97;6.68;;;14.90;99.90;;;;;;4993873;28;20080;-50
2022/05/17 08:02:11;;;;;;;8.23;6.00;;;15.00;99.90;;;;;;5010956;28;20013;-48
2022/05/17 08:04:36;;;;;;;8.02;6.85;;;15.00;99.90;;;;;;5133140;23;20122;-42
2022/05/17 08:07:02;;;;;;;6.78;6.00;;;15.00;99.90;;;;;;4991510;28;20027;-42
2022/05/17 08:09:28;;;;;;;8.13;6.78;;;15.10;99.90;;;;;;4973919;28;20121;-42
2022/05/17 08:11:54;;;;;;;7.97;6.78;;;15.20;99.90;;;;;;4991341;28;20106;-42
2022/05/17 08:14:20;;;;;;;7.35;5.97;;;15.40;99.90;;;;;;4991577;28;20079;-43
2022/05/17 08:16:45;;;;;;;9.20;7.00;;;15.40;99.90;;;;;;4991517;28;20499;-43
2022/05/17 08:19:11;;;;;;;7.88;6.25;;;15.40;99.90;;;;;;4990896;28;20050;-47
2022/05/17 08:21:37;;;;;;;7.07;6.28;;;15.40;99.90;;;;;;4991155;28;20498;-46
2022/05/17 08:24:03;;;;;;;7.20;6.50;;;15.40;99.90;;;;;;4973599;28;20037;-45
2022/05/17 08:29:13;;;;;;;6.95;6.20;;;15.40;99.90;;;;;;4991068;28;20089;-45
2022/05/17 08:31:39;;;;;;;6.93;6.05;;;15.30;99.90;;;;;;4990933;28;20486;-44
2022/05/17 08:34:07;;;;;;;8.10;6.43;;;15.30;99.90;;;;;;4990872;28;20027;-42
2022/05/17 08:36:33;;;;;;;5.07;4.60;;;15.30;99.90;;;;;;4990739;28;20109;-42
2022/05/17 08:38:59;;;;;;;4.97;4.35;;;15.40;99.90;;;;;;4990568;28;20117;-42
2022/05/17 08:41:38;;;;;;;4.50;4.07;;;15.40;99.90;;;;;;4990642;28;20669;-43
2022/05/17 08:44:08;;;;;;;4.25;3.85;;;15.50;99.90;;;;;;4958896;28;20089;-43
2022/05/17 08:46:53;;;;;;;4.40;4.00;;;15.50;99.90;;;;;;4990773;28;20686;-43
2022/05/17 08:49:22;;;;;;;5.07;4.15;;;15.50;99.90;;;;;;4973053;28;20033;-42
2022/05/17 08:51:51;;;;;;;4.43;3.85;;;15.50;99.90;;;;;;4990541;28;20029;-43
2022/05/17 08:54:25;;;;;;;6.95;4.68;;;15.50;99.90;;;;;;4990724;28;20058;-43
2022/05/17 08:57:32;;;;;;;5.00;4.38;;;15.60;99.90;;;;;;4990898;28;20073;-43
2022/05/17 09:00:05;;;;;;;4.90;4.40;;;15.80;99.90;;;;;;4986930;28;20076;-44
2022/05/17 09:02:51;;;;;;;4.05;3.47;;;15.90;99.90;;;;;;4990589;28;20054;-42
2022/05/17 09:05:34;;;;;;;;;;;16.00;99.90;;;;;;4990837;28;20030;-47
2022/05/17 09:08:07;;;;;;;5.60;4.88;;;16.00;99.90;;;;;;4990296;28;19964;-42
2022/05/17 09:11:04;;;;;;;5.28;4.85;;;16.00;99.90;;;;;;4990656;28;20022;-42
2022/05/17 09:13:55;;;;;;;6.05;4.90;;;15.90;99.90;;;;;;4989307;28;20113;-42
2022/05/17 09:16:27;;;;;;;5.28;4.82;;;16.00;99.90;;;;;;4990462;28;20398;-42
2022/05/17 09:18:53;;;;;;;5.63;5.13;;;16.00;99.90;;;;;;4990487;28;20026;-47
2022/05/17 09:21:32;;;;;;;6.05;5.55;;;16.10;99.90;;;;;;4973156;28;20165;-42
2022/05/17 09:24:02;;;;;;;5.72;5.22;;;16.30;99.90;;;;;;4990091;28;20402;-43
2022/05/17 09:26:28;;;;;;;6.25;5.65;;;16.40;99.90;;;;;;4990447;28;20147;-42
2022/05/17 09:29:04;;;;;;;4.20;3.78;;;16.50;99.90;;;;;;4973021;28;20607;-42
2022/05/17 09:31:35;;;;;;;4.95;4.47;;;16.50;99.90;;;;;;4990068;28;20027;-44
2022/05/17 09:34:08;;;;;;;4.63;4.22;;;16.50;99.90;;;;;;4990494;28;20626;-44
2022/05/17 09:36:49;;;;;;;5.32;4.82;;;16.50;99.90;;;;;;4990518;28;20026;-43
2022/05/17 09:39:20;;;;;;;4.60;4.20;;;16.50;99.90;;;;;;4990791;28;20389;-43
2022/05/17 09:41:46;;;;;;;4.85;4.35;;;16.50;99.90;;;;;;4990552;28;20031;-43
2022/05/17 09:44:19;;;;;;;4.43;4.03;;;16.60;99.90;;;;;;4972790;28;20031;-43
2022/05/17 09:46:48;;;;;;;5.25;4.65;;;16.40;99.90;;;;;;4990315;28;20053;-43
2022/05/17 09:52:32;;;;;;;3.95;3.65;;;16.50;99.90;;;;;;4990139;28;20037;-43
2022/05/17 09:55:08;;;;;;;5.43;4.90;;;16.70;99.90;;;;;;4990283;28;20113;-43
2022/05/17 09:57:34;;;;;;;5.03;4.55;;;16.80;99.90;;;;;;4990030;28;20089;-43
2022/05/17 10:00:12;;;;;;;5.43;4.82;;;16.80;99.90;;;;;;4972884;28;20495;-45
2022/05/17 10:03:05;;;;;;;4.95;4.55;;;16.90;99.90;;;;;;4972587;28;20093;-43
2022/05/17 10:05:37;;;;;;;3.80;3.50;;;16.90;99.90;;;;;;4990075;28;20046;-43
2022/05/17 10:08:26;;;;;;;5.00;4.55;;;17.00;99.90;;;;;;4989787;28;20089;-43
2022/05/17 10:11:16;;;;;;;4.75;4.35;;;17.00;99.90;;;;;;4950103;28;20031;-43
2022/05/17 10:13:51;;;;;;;4.45;3.78;;;17.00;99.90;;;;;;4990459;28;20023;-43
2022/05/17 10:16:49;;;;;;;4.55;4.15;;;17.00;99.90;;;;;;4994200;28;20494;-43
2022/05/17 10:19:46;;;;;;;5.57;5.07;;;16.90;99.90;;;;;;4961568;28;20418;-44
2022/05/17 10:22:12;;;;;;;5.15;4.75;;;16.90;99.90;;;;;;4994589;28;20022;-44
2022/05/17 10:25:02;;;;;;;4.57;4.18;;;16.80;99.90;;;;;;4993408;28;20562;-48
2022/05/17 10:27:32;;;;;;;5.07;4.68;;;16.90;99.90;;;;;;4993371;28;20034;-47
2022/05/17 10:30:19;;;;;;;5.45;4.95;;;17.00;99.90;;;;;;4993567;28;20022;-45
2022/05/17 10:32:59;;;;;;;4.78;4.38;;;17.30;99.90;;;;;;4993132;28;20029;-47
2022/05/17 10:35:35;;;;;;;9.02;5.00;;;17.60;99.90;;;;;;4993266;28;20061;-47
2022/05/17 10:38:13;;;;;;;4.32;4.03;;;17.90;99.90;;;;;;4993362;28;20071;-45
2022/05/17 10:40:46;;;;;;;4.20;3.80;;;18.10;99.90;;;;;;4993184;28;20459;-48
2022/05/17 10:43:21;;;;;;;5.15;4.75;;;18.20;99.90;;;;;;4992968;28;20033;-47
2022/05/17 10:46:00;;;;;;;4.80;4.40;;;18.30;99.90;;;;;;4993014;28;20164;-47
2022/05/17 10:49:09;;;;;;;4.93;4.53;;;18.20;99.90;;;;;;4993026;28;20030;-43
2022/05/17 10:51:57;;;;;;;4.80;4.40;;;18.00;99.90;;;;;;4975270;28;20030;-49
2022/05/17 10:54:39;;;;;;;4.97;4.57;;;18.00;99.90;;;;;;4993452;28;20027;-45
2022/05/17 10:57:29;;;;;;;5.05;4.65;;;18.00;99.90;;;;;;4975579;28;20026;-48
2022/05/17 11:00:18;;;;;;;4.25;3.95;;;17.90;99.90;;;;;;4975112;28;20030;-49
2022/05/17 11:03:20;;;;;;;4.40;4.00;;;17.90;99.90;;;;;;4992773;28;20026;-44
2022/05/17 11:06:02;;;;;;;5.10;4.30;;;18.00;99.90;;;;;;4975311;28;20034;-46
2022/05/17 11:08:52;;;;;;;3.53;3.22;;;17.90;99.90;;;;;;4992857;28;20027;-44
2022/05/17 11:11:45;;;;;;;3.85;3.40;;;18.00;99.90;;;;;;4992339;28;20510;-44
2022/05/17 11:14:22;;;;;;;5.22;4.20;;;18.10;99.90;;;;;;4992469;28;20022;-50
2022/05/17 11:17:07;;;;;;;4.65;3.72;;;18.10;99.90;;;;;;4975330;28;20019;-43
2022/05/17 11:19:51;;;;;;;4.10;3.67;;;18.10;99.90;;;;;;4991985;28;20517;-44
2022/05/17 11:22:43;;;;;;;3.83;3.53;;;18.10;99.90;;;;;;4991919;28;20096;-48
2022/05/17 11:25:47;;;;;;;7.20;4.50;;;18.00;99.90;;;;;;4991405;28;20049;-43
2022/05/17 11:28:36;;;;;;;4.32;3.90;;;18.20;99.90;;;;;;4992295;28;20061;-46
2022/05/17 11:31:57;;;;;;;4.90;4.50;;;18.30;99.90;;;;;;4992653;28;20034;-46
2022/05/17 11:34:34;;;;;;;4.93;4.43;;;18.40;99.90;;;;;;4964709;28;20039;-44
2022/05/17 11:37:36;;;;;;;4.97;4.35;;;18.40;99.90;;;;;;4992379;28;20057;-44
2022/05/17 11:40:07;;;;;;;6.07;4.72;;;18.30;99.90;;;;;;4992058;28;20026;-43
2022/05/17 11:45:50;;;;;;;5.00;4.60;;;18.30;99.90;;;;;;4992005;28;20045;-47
2022/05/17 11:48:18;;;;;;;5.07;4.65;;;18.30;99.90;;;;;;4991856;28;20034;-46
2022/05/17 11:50:57;;;;;;;5.03;4.60;;;18.40;99.90;;;;;;4992095;28;20030;-45
2022/05/17 11:53:23;;;;;;;4.07;3.78;;;18.40;99.90;;;;;;4991572;28;20490;-45
2022/05/17 11:56:16;;;;;;;7.30;5.05;;;18.30;99.90;;;;;;4991738;28;20102;-44
2022/05/17 11:58:48;;;;;;;5.22;4.65;;;18.40;99.90;;;;;;4991785;28;20026;-44
2022/05/17 12:01:29;;;;;;;8.00;6.25;;;18.20;99.90;;;;;;4990657;28;20092;-45
2022/05/17 12:04:04;;;;;;;7.65;6.95;;;18.10;99.90;;;;;;4989192;28;20459;-45
2022/05/17 12:06:41;;;;;;;6.67;5.90;;;18.00;99.90;;;;;;4989552;28;20538;-45
2022/05/17 12:09:38;;;;;;;6.07;5.57;;;18.00;99.90;;;;;;4991836;28;20035;-44
2022/05/17 12:12:30;;;;;;;8.13;6.40;;;18.00;99.90;;;;;;4991649;28;20427;-44
2022/05/17 12:15:16;;;;;;;6.78;6.18;;;18.00;99.90;;;;;;4991258;28;20060;-47
2022/05/17 12:17:44;;;;;;;6.72;6.13;;;17.90;99.90;;;;;;4991251;28;20026;-44
2022/05/17 12:20:28;;;;;;;7.18;6.47;;;17.80;99.90;;;;;;4973450;28;20113;-44
2022/05/17 12:22:57;;;;;;;7.00;5.60;;;17.80;99.90;;;;;;4991175;28;20030;-45
2022/05/17 12:25:30;;;;;;;7.80;7.07;;;17.80;99.90;;;;;;4990816;28;20049;-44
2022/05/17 12:27:55;;;;;;;6.03;5.53;;;17.90;99.90;;;;;;4990997;28;20117;-44
2022/05/17 12:33:23;;;;;;;6.28;5.63;;;17.90;99.90;;;;;;4991014;28;20555;-45
2022/05/17 12:35:50;;;;;;;6.22;5.53;;;18.00;99.90;;;;;;4973433;28;20031;-46
2022/05/17 12:44:16;;;;;;;6.20;5.60;;;18.50;99.90;;;;;;4990785;28;20088;-50
2022/05/17 12:46:45;;;;;;;6.65;6.05;;;18.40;99.90;;;;;;4991165;28;20061;-44
2022/05/17 12:49:32;;;;;;;6.72;6.13;;;18.40;99.90;;;;;;4991054;28;20106;-47
2022/05/17 12:52:12;;;;;;;5.97;5.38;;;18.30;99.90;;;;;;4973229;28;20184;-46
2022/05/17 12:54:39;;;;;;;6.20;5.55;;;18.30;99.90;;;;;;4973603;28;20495;-46
2022/05/17 12:57:25;;;;;;;7.75;5.13;;;18.30;99.90;;;;;;4990873;28;20037;-43
2022/05/17 12:59:50;;;;;;;7.68;5.10;;;18.30;99.90;;;;;;4973479;28;20034;-46
2022/05/17 13:02:24;;;;;;;5.10;4.68;;;18.30;99.90;;;;;;4972802;28;20506;-43
2022/05/17 13:04:50;;;;;;;5.63;4.88;;;18.50;99.90;;;;;;4990376;28;20138;-47
2022/05/17 13:07:19;;;;;;;6.05;4.47;;;18.60;99.90;;;;;;4990474;28;20620;-45
2022/05/17 13:10:01;;;;;;;5.15;4.55;;;18.70;99.90;;;;;;4990749;28;20038;-44
2022/05/17 13:12:29;;;;;;;4.20;3.30;;;18.70;99.90;;;;;;4990080;28;20491;-45
2022/05/17 13:14:56;;;;;;;4.72;4.32;;;18.70;99.90;;;;;;4990539;28;20035;-45
2022/05/17 13:17:32;;;;;;;6.40;4.57;;;18.80;99.90;;;;;;4990603;28;20034;-45
2022/05/17 13:20:08;;;;;;;3.60;3.13;;;18.70;99.90;;;;;;4989828;28;20022;-44
2022/05/17 13:22:39;;;;;;;4.00;3.60;;;18.80;99.90;;;;;;4990267;28;20679;-45
2022/05/17 13:25:09;;;;;;;4.05;3.75;;;18.80;99.90;;;;;;4990288;28;20776;-47